sensor_id;sensor_type;location;lat;lon;timestamp;P1;durP1;ratioP1;P2;durP2;ratioP2
22622;SDS011;11478;51.094;7.030;2022-07-05T00:00:26;5.40;;;3.30;;
22622;SDS011;11478;51.094;7.030;2022-07-05T00:02:54;8.27;;;3.15;;
22622;SDS011;11478;51.094;7.030;2022-07-05T00:05:27;4.10;;;2.60;;
22622;SDS011;11478;51.094;7.030;2022-07-05T00:08:01;3.72;;;2.72;;
22622;SDS011;11478;51.094;7.030;2022-07-05T00:10:27;6.78;;;3.10;;
22622;SDS011;11478;51.094;7.030;2022-07-05T00:12:53;6.65;;;3.30;;
22622;SDS011;11478;51.094;7.030;2022-07-05T00:15:25;5.28;;;3.05;;
22622;SDS011;11478;51.094;7.030;2022-07-05T00:17:54;4.70;;;3.20;;
22622;SDS011;11478;51.094;7.030;2022-07-05T00:20:20;3.85;;;2.95;;
22622;SDS011;11478;51.094;7.030;2022-07-05T00:22:47;6.95;;;3.33;;
22622;SDS011;11478;51.094;7.030;2022-07-05T00:25:14;6.43;;;3.28;;
22622;SDS011;11478;51.094;7.030;2022-07-05T00:27:42;7.07;;;3.50;;
22622;SDS011;11478;51.094;7.030;2022-07-05T00:30:11;5.47;;;3.78;;
22622;SDS011;11478;51.094;7.030;2022-07-05T00:32:37;5.93;;;3.65;;
22622;SDS011;11478;51.094;7.030;2022-07-05T00:35:05;5.20;;;3.50;;
22622;SDS011;11478;51.094;7.030;2022-07-05T00:37:31;5.70;;;3.63;;
22622;SDS011;11478;51.094;7.030;2022-07-05T00:40:00;5.60;;;3.42;;
22622;SDS011;11478;51.094;7.030;2022-07-05T00:42:26;5.85;;;3.80;;
22622;SDS011;11478;51.094;7.030;2022-07-05T00:45:02;7.35;;;3.70;;
22622;SDS011;11478;51.094;7.030;2022-07-05T00:47:29;4.30;;;3.50;;
22622;SDS011;11478;51.094;7.030;2022-07-05T00:49:55;6.18;;;4.00;;
22622;SDS011;11478;51.094;7.030;2022-07-05T00:52:21;5.50;;;3.67;;
22622;SDS011;11478;51.094;7.030;2022-07-05T00:54:50;5.75;;;3.78;;
22622;SDS011;11478;51.094;7.030;2022-07-05T00:57:16;4.28;;;3.33;;
22622;SDS011;11478;51.094;7.030;2022-07-05T00:59:47;7.22;;;3.80;;
22622;SDS011;11478;51.094;7.030;2022-07-05T01:02:14;5.38;;;3.63;;
22622;SDS011;11478;51.094;7.030;2022-07-05T01:04:48;6.03;;;3.97;;
22622;SDS011;11478;51.094;7.030;2022-07-05T01:07:22;6.55;;;3.70;;
22622;SDS011;11478;51.094;7.030;2022-07-05T01:10:05;5.97;;;3.70;;
22622;SDS011;11478;51.094;7.030;2022-07-05T01:12:54;8.23;;;3.70;;
22622;SDS011;11478;51.094;7.030;2022-07-05T01:15:33;4.55;;;3.40;;
22622;SDS011;11478;51.094;7.030;2022-07-05T01:18:10;4.05;;;3.38;;
22622;SDS011;11478;51.094;7.030;2022-07-05T01:20:37;4.55;;;3.50;;
22622;SDS011;11478;51.094;7.030;2022-07-05T01:23:14;3.97;;;3.42;;
22622;SDS011;11478;51.094;7.030;2022-07-05T01:26:02;5.78;;;3.50;;
22622;SDS011;11478;51.094;7.030;2022-07-05T01:28:53;6.22;;;3.75;;
22622;SDS011;11478;51.094;7.030;2022-07-05T01:31:32;4.65;;;3.25;;
22622;SDS011;11478;51.094;7.030;2022-07-05T01:34:01;5.43;;;3.53;;
22622;SDS011;11478;51.094;7.030;2022-07-05T01:36:52;8.48;;;4.10;;
22622;SDS011;11478;51.094;7.030;2022-07-05T01:39:25;6.63;;;4.10;;
22622;SDS011;11478;51.094;7.030;2022-07-05T01:41:56;5.45;;;3.50;;
22622;SDS011;11478;51.094;7.030;2022-07-05T01:44:27;7.40;;;3.55;;
22622;SDS011;11478;51.094;7.030;2022-07-05T01:47:13;5.75;;;3.63;;
22622;SDS011;11478;51.094;7.030;2022-07-05T01:50:15;4.60;;;3.42;;
22622;SDS011;11478;51.094;7.030;2022-07-05T02:03:19;5.00;;;3.55;;
22622;SDS011;11478;51.094;7.030;2022-07-05T02:06:09;5.30;;;3.88;;
22622;SDS011;11478;51.094;7.030;2022-07-05T02:08:45;7.70;;;4.20;;
22622;SDS011;11478;51.094;7.030;2022-07-05T02:11:44;4.78;;;4.22;;
22622;SDS011;11478;51.094;7.030;2022-07-05T02:17:04;8.43;;;4.20;;
22622;SDS011;11478;51.094;7.030;2022-07-05T02:19:46;7.75;;;4.70;;
22622;SDS011;11478;51.094;7.030;2022-07-05T02:22:16;6.32;;;4.38;;
22622;SDS011;11478;51.094;7.030;2022-07-05T02:24:52;8.55;;;4.90;;
22622;SDS011;11478;51.094;7.030;2022-07-05T02:27:31;7.28;;;4.63;;
22622;SDS011;11478;51.094;7.030;2022-07-05T02:30:08;5.05;;;4.45;;
22622;SDS011;11478;51.094;7.030;2022-07-05T02:32:42;6.22;;;4.72;;
22622;SDS011;11478;51.094;7.030;2022-07-05T02:35:22;9.73;;;4.90;;
22622;SDS011;11478;51.094;7.030;2022-07-05T02:38:00;6.28;;;4.85;;
22622;SDS011;11478;51.094;7.030;2022-07-05T02:40:32;6.22;;;4.68;;
22622;SDS011;11478;51.094;7.030;2022-07-05T02:43:14;5.10;;;4.60;;
22622;SDS011;11478;51.094;7.030;2022-07-05T02:45:48;6.50;;;4.60;;
22622;SDS011;11478;51.094;7.030;2022-07-05T02:48:40;6.68;;;4.43;;
22622;SDS011;11478;51.094;7.030;2022-07-05T02:51:06;4.95;;;4.10;;
22622;SDS011;11478;51.094;7.030;2022-07-05T02:53:43;4.85;;;4.25;;
22622;SDS011;11478;51.094;7.030;2022-07-05T02:56:14;7.35;;;3.92;;
22622;SDS011;11478;51.094;7.030;2022-07-05T02:58:43;5.63;;;4.25;;
22622;SDS011;11478;51.094;7.030;2022-07-05T03:01:09;5.18;;;4.57;;
22622;SDS011;11478;51.094;7.030;2022-07-05T03:03:36;4.88;;;4.30;;
22622;SDS011;11478;51.094;7.030;2022-07-05T03:06:02;5.65;;;4.25;;
22622;SDS011;11478;51.094;7.030;2022-07-05T03:08:29;4.95;;;4.07;;
22622;SDS011;11478;51.094;7.030;2022-07-05T03:11:00;6.28;;;3.60;;
22622;SDS011;11478;51.094;7.030;2022-07-05T03:13:26;5.25;;;3.45;;
22622;SDS011;11478;51.094;7.030;2022-07-05T03:15:55;6.50;;;4.18;;
22622;SDS011;11478;51.094;7.030;2022-07-05T03:18:29;5.05;;;3.25;;
22622;SDS011;11478;51.094;7.030;2022-07-05T03:29:32;4.68;;;3.83;;
22622;SDS011;11478;51.094;7.030;2022-07-05T03:32:03;3.95;;;3.53;;
22622;SDS011;11478;51.094;7.030;2022-07-05T03:34:43;5.55;;;3.83;;
22622;SDS011;11478;51.094;7.030;2022-07-05T03:37:10;6.47;;;3.65;;
22622;SDS011;11478;51.094;7.030;2022-07-05T03:42:23;6.72;;;4.03;;
22622;SDS011;11478;51.094;7.030;2022-07-05T04:00:27;39.17;;;24.55;;
22622;SDS011;11478;51.094;7.030;2022-07-05T04:03:16;21.20;;;12.30;;
22622;SDS011;11478;51.094;7.030;2022-07-05T04:05:59;11.32;;;6.55;;
22622;SDS011;11478;51.094;7.030;2022-07-05T04:08:38;7.22;;;5.13;;
22622;SDS011;11478;51.094;7.030;2022-07-05T04:11:11;14.18;;;7.60;;
22622;SDS011;11478;51.094;7.030;2022-07-05T04:13:42;24.33;;;15.02;;
22622;SDS011;11478;51.094;7.030;2022-07-05T04:16:23;18.23;;;12.05;;
22622;SDS011;11478;51.094;7.030;2022-07-05T04:18:53;14.45;;;9.05;;
22622;SDS011;11478;51.094;7.030;2022-07-05T04:21:37;13.98;;;8.73;;
22622;SDS011;11478;51.094;7.030;2022-07-05T04:24:05;14.33;;;9.03;;
22622;SDS011;11478;51.094;7.030;2022-07-05T04:26:39;12.07;;;7.28;;
22622;SDS011;11478;51.094;7.030;2022-07-05T04:29:12;9.10;;;5.40;;
22622;SDS011;11478;51.094;7.030;2022-07-05T04:31:38;8.63;;;4.97;;
22622;SDS011;11478;51.094;7.030;2022-07-05T04:34:05;8.80;;;5.38;;
22622;SDS011;11478;51.094;7.030;2022-07-05T04:36:32;5.55;;;4.30;;
22622;SDS011;11478;51.094;7.030;2022-07-05T04:39:01;5.82;;;4.15;;
22622;SDS011;11478;51.094;7.030;2022-07-05T04:41:26;4.82;;;4.05;;
22622;SDS011;11478;51.094;7.030;2022-07-05T04:46:31;4.85;;;3.80;;
22622;SDS011;11478;51.094;7.030;2022-07-05T04:51:33;5.28;;;3.50;;
22622;SDS011;11478;51.094;7.030;2022-07-05T04:54:00;4.38;;;3.50;;
22622;SDS011;11478;51.094;7.030;2022-07-05T04:56:28;5.05;;;3.40;;
22622;SDS011;11478;51.094;7.030;2022-07-05T04:58:54;6.53;;;3.63;;
22622;SDS011;11478;51.094;7.030;2022-07-05T05:01:23;4.93;;;3.60;;
22622;SDS011;11478;51.094;7.030;2022-07-05T05:03:49;5.32;;;3.35;;
22622;SDS011;11478;51.094;7.030;2022-07-05T05:06:18;5.10;;;3.10;;
22622;SDS011;11478;51.094;7.030;2022-07-05T05:08:45;5.25;;;3.17;;
22622;SDS011;11478;51.094;7.030;2022-07-05T05:11:11;3.13;;;2.83;;
22622;SDS011;11478;51.094;7.030;2022-07-05T05:13:37;3.53;;;3.03;;
22622;SDS011;11478;51.094;7.030;2022-07-05T05:16:10;5.03;;;3.30;;
22622;SDS011;11478;51.094;7.030;2022-07-05T05:18:37;5.53;;;3.20;;
22622;SDS011;11478;51.094;7.030;2022-07-05T05:21:03;4.82;;;3.00;;
22622;SDS011;11478;51.094;7.030;2022-07-05T05:23:31;5.68;;;2.97;;
22622;SDS011;11478;51.094;7.030;2022-07-05T05:25:57;5.78;;;2.95;;
22622;SDS011;11478;51.094;7.030;2022-07-05T05:28:26;3.78;;;2.80;;
22622;SDS011;11478;51.094;7.030;2022-07-05T05:30:52;3.28;;;2.63;;
22622;SDS011;11478;51.094;7.030;2022-07-05T05:33:20;5.75;;;2.60;;
22622;SDS011;11478;51.094;7.030;2022-07-05T05:35:46;3.22;;;2.80;;
22622;SDS011;11478;51.094;7.030;2022-07-05T05:38:13;4.10;;;2.97;;
22622;SDS011;11478;51.094;7.030;2022-07-05T05:40:38;3.38;;;2.60;;
22622;SDS011;11478;51.094;7.030;2022-07-05T05:43:09;3.85;;;2.75;;
22622;SDS011;11478;51.094;7.030;2022-07-05T05:45:36;3.47;;;2.83;;
22622;SDS011;11478;51.094;7.030;2022-07-05T05:48:04;4.57;;;2.50;;
22622;SDS011;11478;51.094;7.030;2022-07-05T05:50:31;3.70;;;2.95;;
22622;SDS011;11478;51.094;7.030;2022-07-05T05:53:03;3.60;;;2.78;;
22622;SDS011;11478;51.094;7.030;2022-07-05T05:55:29;2.83;;;2.50;;
22622;SDS011;11478;51.094;7.030;2022-07-05T05:58:20;2.92;;;2.50;;
22622;SDS011;11478;51.094;7.030;2022-07-05T06:00:47;5.00;;;2.60;;
22622;SDS011;11478;51.094;7.030;2022-07-05T06:03:22;3.72;;;2.20;;
22622;SDS011;11478;51.094;7.030;2022-07-05T06:08:19;3.45;;;2.28;;
22622;SDS011;11478;51.094;7.030;2022-07-05T06:10:47;2.58;;;2.28;;
22622;SDS011;11478;51.094;7.030;2022-07-05T06:13:13;2.78;;;2.25;;
22622;SDS011;11478;51.094;7.030;2022-07-05T06:15:43;2.67;;;2.30;;
22622;SDS011;11478;51.094;7.030;2022-07-05T06:18:10;2.95;;;2.13;;
22622;SDS011;11478;51.094;7.030;2022-07-05T06:20:38;3.88;;;1.98;;
22622;SDS011;11478;51.094;7.030;2022-07-05T06:23:07;2.90;;;2.20;;
22622;SDS011;11478;51.094;7.030;2022-07-05T06:25:34;5.13;;;2.25;;
22622;SDS011;11478;51.094;7.030;2022-07-05T06:28:05;3.03;;;2.10;;
22622;SDS011;11478;51.094;7.030;2022-07-05T06:30:37;3.65;;;2.10;;
22622;SDS011;11478;51.094;7.030;2022-07-05T06:33:03;3.00;;;1.88;;
22622;SDS011;11478;51.094;7.030;2022-07-05T06:35:30;4.38;;;2.30;;
22622;SDS011;11478;51.094;7.030;2022-07-05T06:40:34;2.55;;;1.70;;
22622;SDS011;11478;51.094;7.030;2022-07-05T06:43:02;2.53;;;1.80;;
22622;SDS011;11478;51.094;7.030;2022-07-05T06:45:35;2.20;;;1.70;;
22622;SDS011;11478;51.094;7.030;2022-07-05T06:48:02;5.05;;;1.90;;
22622;SDS011;11478;51.094;7.030;2022-07-05T06:50:31;4.30;;;2.13;;
22622;SDS011;11478;51.094;7.030;2022-07-05T06:53:01;3.95;;;2.10;;
22622;SDS011;11478;51.094;7.030;2022-07-05T06:55:29;2.58;;;1.88;;
22622;SDS011;11478;51.094;7.030;2022-07-05T06:57:59;3.15;;;1.77;;
22622;SDS011;11478;51.094;7.030;2022-07-05T07:00:26;3.17;;;1.70;;
22622;SDS011;11478;51.094;7.030;2022-07-05T07:02:52;6.65;;;1.50;;
22622;SDS011;11478;51.094;7.030;2022-07-05T07:05:32;3.17;;;1.50;;
22622;SDS011;11478;51.094;7.030;2022-07-05T07:07:59;1.92;;;1.60;;
22622;SDS011;11478;51.094;7.030;2022-07-05T07:10:43;4.80;;;1.75;;
22622;SDS011;11478;51.094;7.030;2022-07-05T07:13:09;4.10;;;1.70;;
22622;SDS011;11478;51.094;7.030;2022-07-05T07:15:37;4.43;;;1.58;;
22622;SDS011;11478;51.094;7.030;2022-07-05T07:18:03;4.88;;;1.90;;
22622;SDS011;11478;51.094;7.030;2022-07-05T07:20:35;4.90;;;2.00;;
22622;SDS011;11478;51.094;7.030;2022-07-05T07:23:01;4.75;;;1.80;;
22622;SDS011;11478;51.094;7.030;2022-07-05T07:25:29;4.55;;;1.90;;
22622;SDS011;11478;51.094;7.030;2022-07-05T07:27:55;2.72;;;1.70;;
22622;SDS011;11478;51.094;7.030;2022-07-05T07:30:24;4.05;;;2.10;;
22622;SDS011;11478;51.094;7.030;2022-07-05T07:32:51;3.95;;;1.92;;
22622;SDS011;11478;51.094;7.030;2022-07-05T07:35:20;5.45;;;1.83;;
22622;SDS011;11478;51.094;7.030;2022-07-05T07:37:47;2.45;;;1.63;;
22622;SDS011;11478;51.094;7.030;2022-07-05T07:40:13;7.13;;;2.00;;
22622;SDS011;11478;51.094;7.030;2022-07-05T07:42:39;4.75;;;1.70;;
22622;SDS011;11478;51.094;7.030;2022-07-05T07:45:07;5.72;;;1.75;;
22622;SDS011;11478;51.094;7.030;2022-07-05T07:47:34;4.55;;;1.80;;
22622;SDS011;11478;51.094;7.030;2022-07-05T07:50:02;4.55;;;2.03;;
22622;SDS011;11478;51.094;7.030;2022-07-05T07:52:29;5.22;;;1.80;;
22622;SDS011;11478;51.094;7.030;2022-07-05T07:57:54;7.95;;;2.38;;
22622;SDS011;11478;51.094;7.030;2022-07-05T08:00:21;5.78;;;2.38;;
22622;SDS011;11478;51.094;7.030;2022-07-05T08:02:47;5.53;;;2.08;;
22622;SDS011;11478;51.094;7.030;2022-07-05T08:05:13;4.60;;;2.20;;
22622;SDS011;11478;51.094;7.030;2022-07-05T08:07:39;6.35;;;2.70;;
22622;SDS011;11478;51.094;7.030;2022-07-05T08:10:08;2.53;;;1.90;;
22622;SDS011;11478;51.094;7.030;2022-07-05T08:12:34;4.68;;;2.10;;
22622;SDS011;11478;51.094;7.030;2022-07-05T08:15:05;5.38;;;1.92;;
22622;SDS011;11478;51.094;7.030;2022-07-05T08:17:36;4.68;;;1.83;;
22622;SDS011;11478;51.094;7.030;2022-07-05T08:20:02;3.45;;;1.70;;
22622;SDS011;11478;51.094;7.030;2022-07-05T08:22:47;7.20;;;1.77;;
22622;SDS011;11478;51.094;7.030;2022-07-05T08:25:15;5.30;;;1.67;;
22622;SDS011;11478;51.094;7.030;2022-07-05T08:27:42;4.03;;;1.70;;
22622;SDS011;11478;51.094;7.030;2022-07-05T08:30:08;10.45;;;2.10;;
22622;SDS011;11478;51.094;7.030;2022-07-05T08:32:34;4.60;;;1.40;;
22622;SDS011;11478;51.094;7.030;2022-07-05T08:35:01;4.13;;;1.40;;
22622;SDS011;11478;51.094;7.030;2022-07-05T08:37:27;3.20;;;1.58;;
22622;SDS011;11478;51.094;7.030;2022-07-05T08:40:05;6.50;;;1.67;;
22622;SDS011;11478;51.094;7.030;2022-07-05T08:42:35;3.08;;;1.30;;
22622;SDS011;11478;51.094;7.030;2022-07-05T08:45:02;3.50;;;1.30;;
22622;SDS011;11478;51.094;7.030;2022-07-05T08:50:17;2.03;;;1.20;;
22622;SDS011;11478;51.094;7.030;2022-07-05T08:55:14;3.33;;;1.35;;
22622;SDS011;11478;51.094;7.030;2022-07-05T08:57:43;3.40;;;1.40;;
22622;SDS011;11478;51.094;7.030;2022-07-05T09:00:09;3.70;;;1.20;;
22622;SDS011;11478;51.094;7.030;2022-07-05T09:02:35;3.83;;;1.60;;
22622;SDS011;11478;51.094;7.030;2022-07-05T09:05:04;4.97;;;1.58;;
22622;SDS011;11478;51.094;7.030;2022-07-05T09:07:31;6.25;;;1.77;;
22622;SDS011;11478;51.094;7.030;2022-07-05T09:10:02;3.88;;;1.80;;
22622;SDS011;11478;51.094;7.030;2022-07-05T09:15:39;5.82;;;1.98;;
22622;SDS011;11478;51.094;7.030;2022-07-05T09:18:09;4.20;;;2.10;;
22622;SDS011;11478;51.094;7.030;2022-07-05T09:20:36;5.35;;;1.85;;
22622;SDS011;11478;51.094;7.030;2022-07-05T09:23:03;2.60;;;1.70;;
22622;SDS011;11478;51.094;7.030;2022-07-05T09:25:30;3.60;;;1.55;;
22622;SDS011;11478;51.094;7.030;2022-07-05T09:28:03;5.50;;;1.90;;
22622;SDS011;11478;51.094;7.030;2022-07-05T09:30:35;4.88;;;2.00;;
22622;SDS011;11478;51.094;7.030;2022-07-05T09:33:08;3.88;;;2.15;;
22622;SDS011;11478;51.094;7.030;2022-07-05T09:35:43;3.75;;;2.13;;
22622;SDS011;11478;51.094;7.030;2022-07-05T09:38:29;5.00;;;1.73;;
22622;SDS011;11478;51.094;7.030;2022-07-05T09:40:56;3.28;;;1.70;;
22622;SDS011;11478;51.094;7.030;2022-07-05T09:43:24;4.78;;;2.05;;
22622;SDS011;11478;51.094;7.030;2022-07-05T09:48:23;4.82;;;1.60;;
22622;SDS011;11478;51.094;7.030;2022-07-05T09:50:50;3.67;;;1.70;;
22622;SDS011;11478;51.094;7.030;2022-07-05T09:53:19;3.72;;;1.63;;
22622;SDS011;11478;51.094;7.030;2022-07-05T09:56:02;3.72;;;1.58;;
22622;SDS011;11478;51.094;7.030;2022-07-05T09:58:28;3.92;;;2.00;;
22622;SDS011;11478;51.094;7.030;2022-07-05T10:00:54;2.53;;;1.65;;
22622;SDS011;11478;51.094;7.030;2022-07-05T10:03:20;3.20;;;1.65;;
22622;SDS011;11478;51.094;7.030;2022-07-05T10:05:47;4.60;;;1.48;;
22622;SDS011;11478;51.094;7.030;2022-07-05T10:08:13;3.17;;;1.65;;
22622;SDS011;11478;51.094;7.030;2022-07-05T10:10:48;3.33;;;1.60;;
22622;SDS011;11478;51.094;7.030;2022-07-05T10:13:17;3.65;;;1.70;;
22622;SDS011;11478;51.094;7.030;2022-07-05T10:15:43;4.57;;;1.67;;
22622;SDS011;11478;51.094;7.030;2022-07-05T10:21:57;4.38;;;1.63;;
22622;SDS011;11478;51.094;7.030;2022-07-05T10:24:26;2.17;;;1.60;;
22622;SDS011;11478;51.094;7.030;2022-07-05T10:27:08;6.55;;;1.80;;
22622;SDS011;11478;51.094;7.030;2022-07-05T10:29:37;3.50;;;1.50;;
22622;SDS011;11478;51.094;7.030;2022-07-05T10:32:05;4.20;;;1.65;;
22622;SDS011;11478;51.094;7.030;2022-07-05T10:37:06;5.28;;;1.70;;
22622;SDS011;11478;51.094;7.030;2022-07-05T10:39:33;12.50;;;1.67;;
22622;SDS011;11478;51.094;7.030;2022-07-05T10:42:01;3.00;;;1.50;;
22622;SDS011;11478;51.094;7.030;2022-07-05T10:44:33;2.10;;;1.42;;
22622;SDS011;11478;51.094;7.030;2022-07-05T10:47:21;4.03;;;1.73;;
22622;SDS011;11478;51.094;7.030;2022-07-05T10:50:07;5.13;;;2.28;;
22622;SDS011;11478;51.094;7.030;2022-07-05T10:55:41;2.88;;;1.50;;
22622;SDS011;11478;51.094;7.030;2022-07-05T10:58:21;5.43;;;1.67;;
22622;SDS011;11478;51.094;7.030;2022-07-05T11:06:27;3.53;;;1.70;;
22622;SDS011;11478;51.094;7.030;2022-07-05T11:11:39;4.40;;;1.67;;
22622;SDS011;11478;51.094;7.030;2022-07-05T11:22:33;5.05;;;1.83;;
22622;SDS011;11478;51.094;7.030;2022-07-05T11:25:04;5.25;;;1.90;;
22622;SDS011;11478;51.094;7.030;2022-07-05T11:33:27;4.38;;;1.35;;
22622;SDS011;11478;51.094;7.030;2022-07-05T11:39:12;4.55;;;1.38;;
22622;SDS011;11478;51.094;7.030;2022-07-05T11:44:16;3.75;;;1.25;;
22622;SDS011;11478;51.094;7.030;2022-07-05T11:46:42;2.70;;;1.40;;
22622;SDS011;11478;51.094;7.030;2022-07-05T11:49:09;3.80;;;1.48;;
22622;SDS011;11478;51.094;7.030;2022-07-05T11:51:37;1.98;;;1.20;;
22622;SDS011;11478;51.094;7.030;2022-07-05T11:54:09;2.88;;;1.48;;
22622;SDS011;11478;51.094;7.030;2022-07-05T11:59:26;2.85;;;1.50;;
22622;SDS011;11478;51.094;7.030;2022-07-05T12:01:56;3.58;;;1.17;;
22622;SDS011;11478;51.094;7.030;2022-07-05T12:04:23;6.40;;;1.40;;
22622;SDS011;11478;51.094;7.030;2022-07-05T12:06:58;3.75;;;1.40;;
22622;SDS011;11478;51.094;7.030;2022-07-05T12:09:25;3.80;;;1.20;;
22622;SDS011;11478;51.094;7.030;2022-07-05T12:11:55;3.65;;;1.50;;
22622;SDS011;11478;51.094;7.030;2022-07-05T12:14:46;2.25;;;1.50;;
22622;SDS011;11478;51.094;7.030;2022-07-05T12:17:18;1.88;;;1.10;;
22622;SDS011;11478;51.094;7.030;2022-07-05T12:19:45;3.33;;;1.10;;
22622;SDS011;11478;51.094;7.030;2022-07-05T12:22:15;2.55;;;1.38;;
22622;SDS011;11478;51.094;7.030;2022-07-05T12:24:52;3.47;;;1.20;;
22622;SDS011;11478;51.094;7.030;2022-07-05T12:29:53;3.75;;;1.30;;
22622;SDS011;11478;51.094;7.030;2022-07-05T12:32:25;4.70;;;1.38;;
22622;SDS011;11478;51.094;7.030;2022-07-05T12:35:03;3.65;;;1.40;;
22622;SDS011;11478;51.094;7.030;2022-07-05T12:37:34;2.83;;;1.38;;
22622;SDS011;11478;51.094;7.030;2022-07-05T12:42:39;1.98;;;1.10;;
22622;SDS011;11478;51.094;7.030;2022-07-05T12:45:16;1.35;;;1.20;;
22622;SDS011;11478;51.094;7.030;2022-07-05T12:47:53;3.05;;;1.25;;
22622;SDS011;11478;51.094;7.030;2022-07-05T12:50:58;3.20;;;1.20;;
22622;SDS011;11478;51.094;7.030;2022-07-05T12:53:27;2.70;;;1.20;;
22622;SDS011;11478;51.094;7.030;2022-07-05T12:56:16;6.25;;;1.10;;
22622;SDS011;11478;51.094;7.030;2022-07-05T12:59:10;2.67;;;1.25;;
22622;SDS011;11478;51.094;7.030;2022-07-05T13:09:16;2.75;;;1.40;;
22622;SDS011;11478;51.094;7.030;2022-07-05T13:12:08;8.43;;;1.35;;
22622;SDS011;11478;51.094;7.030;2022-07-05T13:14:41;4.32;;;1.10;;
22622;SDS011;11478;51.094;7.030;2022-07-05T13:17:12;3.67;;;1.30;;
22622;SDS011;11478;51.094;7.030;2022-07-05T13:19:48;4.07;;;1.60;;
22622;SDS011;11478;51.094;7.030;2022-07-05T13:22:16;2.45;;;1.30;;
22622;SDS011;11478;51.094;7.030;2022-07-05T13:24:43;2.70;;;1.13;;
22622;SDS011;11478;51.094;7.030;2022-07-05T13:27:12;3.08;;;1.10;;
22622;SDS011;11478;51.094;7.030;2022-07-05T13:29:40;4.97;;;1.50;;
22622;SDS011;11478;51.094;7.030;2022-07-05T13:32:06;1.70;;;1.23;;
22622;SDS011;11478;51.094;7.030;2022-07-05T13:34:34;4.40;;;1.20;;
22622;SDS011;11478;51.094;7.030;2022-07-05T13:37:00;3.45;;;1.20;;
22622;SDS011;11478;51.094;7.030;2022-07-05T13:39:27;2.10;;;1.20;;
22622;SDS011;11478;51.094;7.030;2022-07-05T13:41:54;2.75;;;1.15;;
22622;SDS011;11478;51.094;7.030;2022-07-05T13:46:56;2.33;;;1.20;;
22622;SDS011;11478;51.094;7.030;2022-07-05T13:49:24;2.65;;;1.25;;
22622;SDS011;11478;51.094;7.030;2022-07-05T13:51:51;4.10;;;1.17;;
22622;SDS011;11478;51.094;7.030;2022-07-05T13:54:17;2.13;;;1.25;;
22622;SDS011;11478;51.094;7.030;2022-07-05T13:56:44;3.83;;;1.30;;
22622;SDS011;11478;51.094;7.030;2022-07-05T13:59:13;2.92;;;1.23;;
22622;SDS011;11478;51.094;7.030;2022-07-05T14:01:43;4.50;;;1.25;;
22622;SDS011;11478;51.094;7.030;2022-07-05T14:04:13;4.97;;;1.35;;
22622;SDS011;11478;51.094;7.030;2022-07-05T14:06:45;3.65;;;1.65;;
22622;SDS011;11478;51.094;7.030;2022-07-05T14:09:13;1.75;;;1.27;;
22622;SDS011;11478;51.094;7.030;2022-07-05T14:11:40;5.03;;;1.52;;
22622;SDS011;11478;51.094;7.030;2022-07-05T14:14:06;2.45;;;1.20;;
22622;SDS011;11478;51.094;7.030;2022-07-05T14:16:34;2.30;;;1.20;;
22622;SDS011;11478;51.094;7.030;2022-07-05T14:19:03;3.38;;;1.33;;
22622;SDS011;11478;51.094;7.030;2022-07-05T14:21:31;2.95;;;1.45;;
22622;SDS011;11478;51.094;7.030;2022-07-05T14:23:57;1.77;;;1.30;;
22622;SDS011;11478;51.094;7.030;2022-07-05T14:26:23;2.17;;;1.42;;
22622;SDS011;11478;51.094;7.030;2022-07-05T14:28:52;4.25;;;1.40;;
22622;SDS011;11478;51.094;7.030;2022-07-05T14:31:19;2.60;;;1.10;;
22622;SDS011;11478;51.094;7.030;2022-07-05T14:33:45;3.63;;;1.20;;
22622;SDS011;11478;51.094;7.030;2022-07-05T14:36:12;2.30;;;1.20;;
22622;SDS011;11478;51.094;7.030;2022-07-05T14:38:38;3.30;;;1.20;;
22622;SDS011;11478;51.094;7.030;2022-07-05T14:41:04;2.63;;;1.13;;
22622;SDS011;11478;51.094;7.030;2022-07-05T14:43:30;2.85;;;1.35;;
22622;SDS011;11478;51.094;7.030;2022-07-05T14:45:56;4.03;;;1.30;;
22622;SDS011;11478;51.094;7.030;2022-07-05T14:48:22;2.90;;;1.23;;
22622;SDS011;11478;51.094;7.030;2022-07-05T14:50:56;2.03;;;1.17;;
22622;SDS011;11478;51.094;7.030;2022-07-05T14:53:22;2.40;;;1.30;;
22622;SDS011;11478;51.094;7.030;2022-07-05T14:55:51;2.00;;;1.20;;
22622;SDS011;11478;51.094;7.030;2022-07-05T14:58:20;4.75;;;1.40;;
22622;SDS011;11478;51.094;7.030;2022-07-05T15:00:55;3.05;;;1.50;;
22622;SDS011;11478;51.094;7.030;2022-07-05T15:03:26;4.38;;;1.25;;
22622;SDS011;11478;51.094;7.030;2022-07-05T15:05:52;4.28;;;1.33;;
22622;SDS011;11478;51.094;7.030;2022-07-05T15:08:28;3.20;;;1.33;;
22622;SDS011;11478;51.094;7.030;2022-07-05T15:10:57;2.63;;;1.60;;
22622;SDS011;11478;51.094;7.030;2022-07-05T15:13:25;5.38;;;1.30;;
22622;SDS011;11478;51.094;7.030;2022-07-05T15:15:54;3.35;;;1.42;;
22622;SDS011;11478;51.094;7.030;2022-07-05T15:18:32;2.53;;;1.33;;
22622;SDS011;11478;51.094;7.030;2022-07-05T15:20:59;2.88;;;1.23;;
22622;SDS011;11478;51.094;7.030;2022-07-05T15:23:24;2.97;;;1.42;;
22622;SDS011;11478;51.094;7.030;2022-07-05T15:25:55;3.38;;;1.60;;
22622;SDS011;11478;51.094;7.030;2022-07-05T15:28:25;3.80;;;1.70;;
22622;SDS011;11478;51.094;7.030;2022-07-05T15:33:44;4.55;;;1.58;;
22622;SDS011;11478;51.094;7.030;2022-07-05T15:36:10;2.92;;;1.50;;
22622;SDS011;11478;51.094;7.030;2022-07-05T15:38:35;4.53;;;1.50;;
22622;SDS011;11478;51.094;7.030;2022-07-05T15:41:03;3.25;;;1.40;;
22622;SDS011;11478;51.094;7.030;2022-07-05T15:43:29;4.03;;;1.52;;
22622;SDS011;11478;51.094;7.030;2022-07-05T15:45:58;7.07;;;1.80;;
22622;SDS011;11478;51.094;7.030;2022-07-05T15:48:23;2.75;;;1.40;;
22622;SDS011;11478;51.094;7.030;2022-07-05T15:50:49;5.35;;;1.90;;
22622;SDS011;11478;51.094;7.030;2022-07-05T15:53:16;6.32;;;1.83;;
22622;SDS011;11478;51.094;7.030;2022-07-05T15:55:41;6.18;;;1.90;;
22622;SDS011;11478;51.094;7.030;2022-07-05T15:58:12;5.03;;;2.55;;
22622;SDS011;11478;51.094;7.030;2022-07-05T16:00:38;6.13;;;2.20;;
22622;SDS011;11478;51.094;7.030;2022-07-05T16:03:10;8.18;;;1.85;;
22622;SDS011;11478;51.094;7.030;2022-07-05T16:05:36;5.13;;;1.80;;
22622;SDS011;11478;51.094;7.030;2022-07-05T16:08:02;4.70;;;1.90;;
22622;SDS011;11478;51.094;7.030;2022-07-05T16:10:29;2.83;;;1.55;;
22622;SDS011;11478;51.094;7.030;2022-07-05T16:12:54;7.93;;;1.90;;
22622;SDS011;11478;51.094;7.030;2022-07-05T16:15:21;6.45;;;1.70;;
22622;SDS011;11478;51.094;7.030;2022-07-05T16:18:06;6.45;;;2.00;;
22622;SDS011;11478;51.094;7.030;2022-07-05T16:20:32;5.60;;;2.35;;
22622;SDS011;11478;51.094;7.030;2022-07-05T16:22:57;3.00;;;1.60;;
22622;SDS011;11478;51.094;7.030;2022-07-05T16:25:23;4.60;;;1.90;;
22622;SDS011;11478;51.094;7.030;2022-07-05T16:27:49;3.90;;;1.80;;
22622;SDS011;11478;51.094;7.030;2022-07-05T16:30:16;5.57;;;2.10;;
22622;SDS011;11478;51.094;7.030;2022-07-05T16:32:49;8.18;;;1.90;;
22622;SDS011;11478;51.094;7.030;2022-07-05T16:35:16;3.75;;;1.80;;
22622;SDS011;11478;51.094;7.030;2022-07-05T16:37:47;5.07;;;2.00;;
22622;SDS011;11478;51.094;7.030;2022-07-05T16:40:13;5.85;;;1.98;;
22622;SDS011;11478;51.094;7.030;2022-07-05T16:42:42;4.57;;;2.03;;
22622;SDS011;11478;51.094;7.030;2022-07-05T16:45:08;6.65;;;2.30;;
22622;SDS011;11478;51.094;7.030;2022-07-05T16:47:40;5.00;;;2.15;;
22622;SDS011;11478;51.094;7.030;2022-07-05T16:50:06;5.45;;;2.45;;
22622;SDS011;11478;51.094;7.030;2022-07-05T16:52:38;8.45;;;2.50;;
22622;SDS011;11478;51.094;7.030;2022-07-05T16:55:06;9.32;;;2.55;;
22622;SDS011;11478;51.094;7.030;2022-07-05T16:57:44;9.43;;;3.20;;
22622;SDS011;11478;51.094;7.030;2022-07-05T17:00:10;12.23;;;2.80;;
22622;SDS011;11478;51.094;7.030;2022-07-05T17:02:38;11.05;;;3.13;;
22622;SDS011;11478;51.094;7.030;2022-07-05T17:05:05;8.70;;;2.95;;
22622;SDS011;11478;51.094;7.030;2022-07-05T17:07:32;4.60;;;2.78;;
22622;SDS011;11478;51.094;7.030;2022-07-05T17:09:59;6.13;;;2.58;;